Time;durP1;ratioP1;P1;durP2;ratioP2;P2;SDS_P1;SDS_P2;PMS_P1;PMS_P2;Temp;Humidity;BMP_temperature;BMP_pressure;BME280_temperature;BME280_humidity;BME280_pressure;Samples;Min_cycle;Max_cycle;Signal;HPM_P1;HPM_P2
2021/07/29 00:01:21;;;;;;;14.98;13.70;;;16.00;87.30;;;;;;5037533;29;20085;-72
2021/07/29 00:03:53;;;;;;;16.40;14.98;;;16.00;87.60;;;;;;5018422;29;20072;-72
2021/07/29 00:06:36;;;;;;;16.77;15.15;;;16.00;87.60;;;;;;5034692;29;20128;-72
2021/07/29 00:09:08;;;;;;;15.93;14.73;;;15.80;87.40;;;;;;5021132;29;20125;-71
2021/07/29 00:11:40;;;;;;;16.27;15.07;;;15.80;87.30;;;;;;5035031;29;20107;-71
2021/07/29 00:14:12;;;;;;;16.85;15.32;;;15.70;87.60;;;;;;5035566;29;20124;-71
2021/07/29 00:16:47;;;;;;;15.23;14.02;;;15.70;87.30;;;;;;5040038;29;20129;-72
2021/07/29 00:19:19;;;;;;;15.35;14.05;;;15.70;87.40;;;;;;5038092;29;20776;-72
2021/07/29 00:21:51;;;;;;;15.55;14.35;;;15.70;87.90;;;;;;5041035;29;20128;-71
2021/07/29 00:24:26;;;;;;;16.55;15.05;;;15.70;87.70;;;;;;5002146;29;20053;-71
2021/07/29 00:26:58;;;;;;;15.52;14.43;;;15.60;86.80;;;;;;5040361;29;20049;-72
2021/07/29 00:29:29;;;;;;;15.77;14.57;;;15.60;86.40;;;;;;5039229;29;20054;-72
2021/07/29 00:32:04;;;;;;;15.93;14.75;;;15.60;86.40;;;;;;5020007;29;20449;-73
2021/07/29 00:34:36;;;;;;;15.75;14.40;;;15.60;86.10;;;;;;5019690;29;20144;-72
2021/07/29 00:37:08;;;;;;;15.18;14.05;;;15.50;86.70;;;;;;5020962;29;20141;-73
2021/07/29 00:39:39;;;;;;;15.77;14.63;;;15.40;87.00;;;;;;5040860;29;20045;-73
2021/07/29 00:42:11;;;;;;;15.45;14.25;;;15.40;87.00;;;;;;5037623;29;20048;-72
2021/07/29 00:44:43;;;;;;;14.52;13.43;;;15.40;87.20;;;;;;5040052;29;20046;-71
2021/07/29 00:47:17;;;;;;;14.15;13.15;;;15.40;87.30;;;;;;5036095;29;20076;-72
2021/07/29 00:49:49;;;;;;;14.63;13.52;;;15.40;87.80;;;;;;5040159;29;20612;-72
2021/07/29 00:52:22;;;;;;;15.50;14.27;;;15.30;87.80;;;;;;5035237;29;20569;-72
2021/07/29 00:54:54;;;;;;;16.00;14.57;;;15.30;87.80;;;;;;5034777;29;20507;-73
2021/07/29 00:57:26;;;;;;;15.35;14.05;;;15.30;87.70;;;;;;5039123;29;20053;-71
2021/07/29 00:59:59;;;;;;;15.95;14.45;;;15.20;87.50;;;;;;5038233;29;20587;-72
2021/07/29 01:02:31;;;;;;;16.23;14.85;;;15.20;86.80;;;;;;5037673;29;20813;-71
2021/07/29 01:05:06;;;;;;;15.70;14.50;;;15.10;86.20;;;;;;5041599;29;20067;-72
2021/07/29 01:07:38;;;;;;;16.40;15.15;;;15.10;86.40;;;;;;5039031;29;20087;-71
2021/07/29 01:10:10;;;;;;;16.17;14.77;;;15.10;86.80;;;;;;5036752;29;20053;-72
2021/07/29 01:12:43;;;;;;;16.40;15.18;;;15.10;86.80;;;;;;5034455;29;20132;-72
2021/07/29 01:15:15;;;;;;;16.10;14.88;;;15.10;86.90;;;;;;5038760;29;20057;-70
2021/07/29 01:17:47;;;;;;;16.48;15.07;;;15.10;87.10;;;;;;5041939;29;20041;-72
2021/07/29 01:20:21;;;;;;;16.02;14.73;;;15.10;87.00;;;;;;5006820;29;20920;-72
2021/07/29 01:22:53;;;;;;;16.17;14.85;;;15.10;87.90;;;;;;5036209;29;20053;-71
2021/07/29 01:25:25;;;;;;;16.52;15.18;;;15.10;88.20;;;;;;5017878;29;20135;-72
2021/07/29 01:27:57;;;;;;;15.95;14.73;;;15.10;88.30;;;;;;5035498;29;20077;-71
2021/07/29 01:30:29;;;;;;;15.95;14.75;;;15.10;88.40;;;;;;5032861;29;20072;-71
2021/07/29 01:33:02;;;;;;;15.93;14.73;;;15.00;88.20;;;;;;5037531;29;20041;-71
2021/07/29 01:35:34;;;;;;;15.57;14.27;;;15.10;88.20;;;;;;5036872;29;20465;-71
2021/07/29 01:38:06;;;;;;;15.32;14.13;;;15.10;88.00;;;;;;5033086;29;20076;-71
2021/07/29 01:40:38;;;;;;;16.13;14.88;;;15.10;88.60;;;;;;5039320;29;20643;-72
2021/07/29 01:43:10;;;;;;;14.82;13.43;;;15.10;87.90;;;;;;5034146;29;20736;-70
2021/07/29 01:45:43;;;;;;;14.60;13.50;;;15.10;87.80;;;;;;5032861;29;20144;-71
2021/07/29 01:48:15;;;;;;;15.10;13.90;;;15.20;87.70;;;;;;5039703;29;20105;-72
2021/07/29 01:50:47;;;;;;;15.45;14.25;;;15.20;87.60;;;;;;5035420;29;20083;-71
2021/07/29 01:53:19;;;;;;;15.98;14.63;;;15.20;88.10;;;;;;5036176;29;20065;-71
2021/07/29 01:55:51;;;;;;;15.23;14.13;;;15.20;87.50;;;;;;5037979;29;20056;-71
2021/07/29 01:58:23;;;;;;;16.00;14.80;;;15.10;87.00;;;;;;5037117;29;20049;-71
2021/07/29 02:00:55;;;;;;;15.13;13.93;;;15.10;87.30;;;;;;5037985;29;20045;-71
2021/07/29 02:03:27;;;;;;;15.77;14.43;;;15.10;87.30;;;;;;5035995;29;20045;-70
2021/07/29 02:06:02;;;;;;;15.57;14.27;;;15.10;87.60;;;;;;5030800;29;20118;-71
2021/07/29 02:08:34;;;;;;;15.25;14.05;;;15.10;87.10;;;;;;5039916;29;20097;-71
2021/07/29 02:11:06;;;;;;;15.05;13.90;;;15.10;86.70;;;;;;5038443;29;20059;-71
2021/07/29 02:13:38;;;;;;;15.52;14.05;;;15.00;86.60;;;;;;5037497;29;20152;-71
2021/07/29 02:16:12;;;;;;;15.43;14.02;;;15.00;86.70;;;;;;5036615;29;20988;-71
2021/07/29 02:18:44;;;;;;;16.05;14.65;;;15.00;86.90;;;;;;5036858;29;20153;-72
2021/07/29 02:21:15;;;;;;;14.73;13.63;;;14.90;86.90;;;;;;5040569;29;20543;-72
2021/07/29 02:23:47;;;;;;;15.90;14.60;;;14.90;87.00;;;;;;5037727;29;20064;-71
2021/07/29 02:26:19;;;;;;;15.63;14.43;;;14.90;87.30;;;;;;5035729;29;20041;-70
2021/07/29 02:28:51;;;;;;;14.85;13.65;;;14.90;87.40;;;;;;5022672;29;20099;-70
2021/07/29 02:31:23;;;;;;;15.35;14.15;;;14.90;87.50;;;;;;5039172;29;20096;-71
2021/07/29 02:33:55;;;;;;;14.98;13.88;;;14.90;87.60;;;;;;5037345;29;20558;-71
2021/07/29 02:36:27;;;;;;;15.52;13.98;;;14.90;87.90;;;;;;5033572;29;20049;-71
2021/07/29 02:38:59;;;;;;;16.25;14.75;;;14.90;87.40;;;;;;5041015;29;20477;-71
2021/07/29 02:41:31;;;;;;;15.38;14.20;;;14.90;87.20;;;;;;5034965;29;20156;-71
2021/07/29 02:44:03;;;;;;;15.38;14.18;;;15.00;87.50;;;;;;5021644;29;20127;-72
2021/07/29 02:46:35;;;;;;;15.65;14.45;;;15.00;87.20;;;;;;5031822;29;20128;-71
2021/07/29 02:49:07;;;;;;;15.68;14.38;;;15.00;87.40;;;;;;5033270;29;20049;-71
2021/07/29 02:51:39;;;;;;;16.05;14.75;;;14.90;87.20;;;;;;5034563;29;20046;-71
2021/07/29 02:54:11;;;;;;;15.45;14.18;;;14.90;87.40;;;;;;5018522;29;20136;-71
2021/07/29 02:56:43;;;;;;;15.00;13.70;;;14.90;87.50;;;;;;5036956;29;20146;-71
2021/07/29 02:59:15;;;;;;;15.20;13.90;;;14.90;87.90;;;;;;5038360;29;20037;-71
2021/07/29 03:01:47;;;;;;;15.02;13.88;;;14.90;87.70;;;;;;5039753;29;20056;-72
2021/07/29 03:04:20;;;;;;;15.80;14.48;;;14.90;87.60;;;;;;5021253;29;20423;-72
2021/07/29 03:06:54;;;;;;;15.35;14.10;;;14.90;87.90;;;;;;5023010;29;20033;-72
2021/07/29 03:09:26;;;;;;;14.90;13.50;;;14.90;88.00;;;;;;5022286;29;20135;-72
2021/07/29 03:11:59;;;;;;;14.95;13.85;;;14.80;87.60;;;;;;5036138;29;20113;-72
2021/07/29 03:14:31;;;;;;;15.35;13.88;;;14.80;87.80;;;;;;5036677;29;20517;-73
2021/07/29 03:17:03;;;;;;;15.20;13.95;;;14.90;88.10;;;;;;5035528;29;21505;-71
2021/07/29 03:19:35;;;;;;;15.52;14.27;;;14.90;87.70;;;;;;5020588;29;20466;-73
2021/07/29 03:22:07;;;;;;;15.50;14.27;;;15.00;88.30;;;;;;5036750;29;20065;-73
2021/07/29 03:24:40;;;;;;;15.95;14.35;;;15.00;88.20;;;;;;5041027;29;20041;-72
2021/07/29 03:27:11;;;;;;;15.63;14.10;;;15.00;87.70;;;;;;5036536;29;20128;-72
2021/07/29 03:29:43;;;;;;;15.65;14.30;;;15.10;87.60;;;;;;5033990;29;20278;-72
2021/07/29 03:32:15;;;;;;;14.57;13.48;;;15.10;88.10;;;;;;5035719;29;20044;-73
2021/07/29 03:34:47;;;;;;;18.42;15.43;;;15.10;88.10;;;;;;5036377;29;20077;-72
2021/07/29 03:37:19;;;;;;;15.65;14.45;;;15.10;87.50;;;;;;5033238;29;20105;-73
2021/07/29 03:39:51;;;;;;;15.07;13.68;;;15.10;88.00;;;;;;5013428;29;20108;-72
2021/07/29 03:42:23;;;;;;;15.07;13.98;;;15.10;87.70;;;;;;5046864;29;20165;-71
2021/07/29 03:44:55;;;;;;;15.43;14.05;;;15.10;87.60;;;;;;5007028;29;20204;-71
2021/07/29 03:47:27;;;;;;;15.38;14.20;;;15.10;87.60;;;;;;5034312;29;20076;-71
2021/07/29 03:50:00;;;;;;;15.55;14.35;;;15.10;88.30;;;;;;5035721;29;20496;-71
2021/07/29 03:52:35;;;;;;;15.88;14.68;;;15.00;88.50;;;;;;5020676;29;20052;-72
2021/07/29 03:55:07;;;;;;;15.88;14.48;;;15.00;88.20;;;;;;5036793;29;20117;-71
2021/07/29 03:57:39;;;;;;;15.63;14.10;;;15.00;88.50;;;;;;5035502;29;20369;-71
2021/07/29 04:00:14;;;;;;;15.90;14.60;;;15.00;88.30;;;;;;5020337;29;20584;-71
2021/07/29 04:02:46;;;;;;;15.27;14.15;;;15.00;87.90;;;;;;5022346;29;20199;-72
2021/07/29 04:05:18;;;;;;;15.98;14.77;;;15.00;87.40;;;;;;5034499;29;20128;-72
2021/07/29 04:07:50;;;;;;;15.32;14.13;;;15.00;87.40;;;;;;5031718;29;20132;-71
2021/07/29 04:10:22;;;;;;;15.00;13.60;;;14.90;87.10;;;;;;5034051;29;20793;-71
2021/07/29 04:12:54;;;;;;;15.50;14.20;;;14.90;87.30;;;;;;5036365;29;20044;-71
2021/07/29 04:15:25;;;;;;;15.57;14.15;;;14.80;87.00;;;;;;5019041;29;20120;-71
2021/07/29 04:17:57;;;;;;;14.80;13.68;;;14.80;87.00;;;;;;5037451;29;20128;-71
2021/07/29 04:20:29;;;;;;;15.07;13.88;;;14.70;87.30;;;;;;5018170;29;20049;-71
2021/07/29 04:23:01;;;;;;;15.93;14.60;;;14.70;87.40;;;;;;5033992;29;20121;-71
2021/07/29 04:25:33;;;;;;;15.55;14.15;;;14.70;87.50;;;;;;5036720;29;20045;-70
2021/07/29 04:28:05;;;;;;;15.57;14.20;;;14.70;87.70;;;;;;5037590;29;20052;-71
2021/07/29 04:30:37;;;;;;;15.70;14.40;;;14.80;87.50;;;;;;5034261;29;20097;-72
2021/07/29 04:33:09;;;;;;;15.30;14.10;;;14.70;87.90;;;;;;5033213;29;20419;-70
2021/07/29 04:35:41;;;;;;;14.93;13.77;;;14.80;87.90;;;;;;5035279;29;20052;-71
2021/07/29 04:38:13;;;;;;;15.32;14.10;;;14.80;88.50;;;;;;5037436;29;20068;-71
2021/07/29 04:40:45;;;;;;;14.93;13.73;;;14.80;87.80;;;;;;5035801;29;20065;-71
2021/07/29 04:43:17;;;;;;;14.32;13.23;;;14.80;87.40;;;;;;5034814;29;20059;-71
2021/07/29 04:45:48;;;;;;;15.55;14.18;;;14.90;87.40;;;;;;5036690;29;20073;-71
2021/07/29 04:48:20;;;;;;;15.65;13.68;;;14.90;87.20;;;;;;5035857;29;20077;-72
2021/07/29 04:50:52;;;;;;;14.98;13.82;;;14.90;87.90;;;;;;5034010;29;20520;-72
2021/07/29 04:53:24;;;;;;;15.07;13.57;;;14.90;88.20;;;;;;5020103;29;20129;-71
2021/07/29 04:55:56;;;;;;;15.30;13.88;;;15.00;87.90;;;;;;5037285;29;20201;-70
2021/07/29 04:58:28;;;;;;;15.02;13.82;;;15.00;87.70;;;;;;5036581;29;20144;-71
2021/07/29 05:01:04;;;;;;;16.73;15.10;;;15.10;87.90;;;;;;5037791;29;20987;-71
2021/07/29 05:03:36;;;;;;;17.10;15.50;;;15.20;87.60;;;;;;5037903;29;20045;-71
2021/07/29 05:06:08;;;;;;;16.20;14.90;;;15.40;87.90;;;;;;5039470;29;20049;-71
2021/07/29 05:08:41;;;;;;;16.08;14.85;;;15.50;88.10;;;;;;5039235;29;20459;-71
2021/07/29 05:11:13;;;;;;;16.25;15.05;;;15.60;87.90;;;;;;5040098;29;20044;-71
2021/07/29 05:13:45;;;;;;;16.08;14.77;;;15.70;88.10;;;;;;5037227;29;20079;-73
2021/07/29 05:16:17;;;;;;;15.10;14.00;;;15.80;88.20;;;;;;5037871;29;20140;-72
2021/07/29 05:18:49;;;;;;;16.17;14.90;;;15.80;88.00;;;;;;5036383;29;20041;-72
2021/07/29 05:21:21;;;;;;;15.75;14.55;;;15.80;88.20;;;;;;5036568;29;20062;-72
2021/07/29 05:23:53;;;;;;;16.15;14.80;;;15.80;88.60;;;;;;5038454;29;20072;-72
2021/07/29 05:26:25;;;;;;;16.42;15.13;;;15.80;88.70;;;;;;5039002;29;20097;-72
2021/07/29 05:28:57;;;;;;;16.85;15.20;;;15.80;88.40;;;;;;5040033;29;20052;-72
2021/07/29 05:31:28;;;;;;;16.05;14.85;;;15.80;89.10;;;;;;5039325;29;20113;-72
2021/07/29 05:34:00;;;;;;;16.58;15.38;;;15.80;88.70;;;;;;5034151;29;20581;-73
2021/07/29 05:36:32;;;;;;;16.50;15.02;;;15.80;89.10;;;;;;5035526;29;20068;-73
2021/07/29 05:39:04;;;;;;;17.58;16.00;;;15.80;88.90;;;;;;5040632;29;20131;-72
2021/07/29 05:41:36;;;;;;;16.42;15.18;;;15.90;89.20;;;;;;5041048;29;20041;-72
2021/07/29 05:44:11;;;;;;;16.83;15.55;;;15.90;89.10;;;;;;5035193;29;20053;-75
2021/07/29 05:46:43;;;;;;;17.35;15.68;;;15.90;89.10;;;;;;5038584;29;20068;-73
2021/07/29 05:49:15;;;;;;;17.45;16.05;;;16.00;88.70;;;;;;5037784;29;20068;-73
2021/07/29 05:51:47;;;;;;;17.30;16.00;;;16.00;88.40;;;;;;5040874;29;20076;-75
2021/07/29 05:54:19;;;;;;;17.27;15.90;;;16.10;88.30;;;;;;5024743;29;20512;-73
2021/07/29 05:56:51;;;;;;;17.63;16.13;;;16.30;88.70;;;;;;5038788;29;20161;-71
2021/07/29 05:59:23;;;;;;;16.83;15.60;;;16.30;88.50;;;;;;5040770;29;20546;-71
2021/07/29 06:01:55;;;;;;;17.63;16.33;;;16.40;88.10;;;;;;5036792;29;20037;-70
2021/07/29 06:04:27;;;;;;;22.88;17.00;;;16.50;88.10;;;;;;5034278;29;20071;-71
2021/07/29 06:06:59;;;;;;;21.52;17.58;;;16.50;87.90;;;;;;5030185;29;20077;-71
2021/07/29 06:09:31;;;;;;;18.55;17.02;;;16.50;87.80;;;;;;5036563;29;20659;-71
2021/07/29 06:12:03;;;;;;;18.05;16.55;;;16.50;87.50;;;;;;5033575;29;20148;-74
2021/07/29 06:14:36;;;;;;;17.65;16.25;;;16.50;87.50;;;;;;5040161;29;20136;-71
2021/07/29 06:17:08;;;;;;;17.35;15.95;;;16.60;87.40;;;;;;5034312;29;20139;-70
2021/07/29 06:19:41;;;;;;;17.38;16.13;;;16.60;87.50;;;;;;5034935;29;20135;-70
2021/07/29 06:22:13;;;;;;;17.67;16.20;;;16.60;87.30;;;;;;5037303;29;20045;-70
2021/07/29 06:24:45;;;;;;;16.85;15.65;;;16.70;87.20;;;;;;5021192;29;20041;-70
2021/07/29 06:27:17;;;;;;;16.45;15.05;;;16.80;87.40;;;;;;5034335;29;20048;-70
2021/07/29 06:29:49;;;;;;;17.27;15.98;;;16.80;86.30;;;;;;5040699;29;20068;-70
2021/07/29 06:32:21;;;;;;;17.33;16.02;;;16.90;86.90;;;;;;5037088;29;20685;-70
2021/07/29 06:34:53;;;;;;;18.00;16.60;;;16.90;87.00;;;;;;5035416;29;20053;-71
2021/07/29 06:37:25;;;;;;;18.02;16.70;;;17.00;87.00;;;;;;5028530;29;20572;-70
2021/07/29 06:39:57;;;;;;;17.48;16.25;;;17.00;86.60;;;;;;5037968;29;20072;-71
2021/07/29 06:42:29;;;;;;;18.83;17.10;;;17.00;86.70;;;;;;5038435;29;20571;-70
2021/07/29 06:45:01;;;;;;;18.20;16.90;;;17.00;86.70;;;;;;5038969;29;20060;-70
2021/07/29 06:47:33;;;;;;;18.08;16.58;;;17.10;87.30;;;;;;5037010;29;20112;-71
2021/07/29 06:50:06;;;;;;;17.95;16.67;;;17.10;86.60;;;;;;5037007;29;20055;-71
2021/07/29 06:52:38;;;;;;;17.45;16.15;;;17.20;86.60;;;;;;5034610;29;20692;-70
2021/07/29 06:55:10;;;;;;;17.42;16.17;;;17.30;87.10;;;;;;5036211;29;20173;-71
2021/07/29 06:57:42;;;;;;;17.75;16.30;;;17.30;87.00;;;;;;5034175;29;20138;-70
2021/07/29 07:00:14;;;;;;;17.73;16.38;;;17.40;86.30;;;;;;5035141;29;20101;-70
2021/07/29 07:02:46;;;;;;;17.67;16.27;;;17.40;86.70;;;;;;5037334;29;20050;-70
2021/07/29 07:05:18;;;;;;;18.20;16.90;;;17.50;86.60;;;;;;5035846;29;20049;-71
2021/07/29 07:07:50;;;;;;;18.50;17.10;;;17.50;86.40;;;;;;5035369;29;20093;-70
2021/07/29 07:10:22;;;;;;;18.25;16.95;;;17.60;86.60;;;;;;5037896;29;20048;-70
2021/07/29 07:12:54;;;;;;;18.95;17.35;;;17.60;86.10;;;;;;5007817;29;20105;-70
2021/07/29 07:15:26;;;;;;;18.75;17.33;;;17.70;85.50;;;;;;5033119;29;20057;-69
2021/07/29 07:17:58;;;;;;;18.15;16.60;;;17.80;86.00;;;;;;5032564;29;20045;-70
2021/07/29 07:20:30;;;;;;;17.88;16.48;;;17.80;85.30;;;;;;5032226;29;20049;-70
2021/07/29 07:23:02;;;;;;;17.70;16.27;;;17.90;86.00;;;;;;5036280;29;20104;-71
2021/07/29 07:25:36;;;;;;;18.70;17.38;;;18.10;85.90;;;;;;5035398;29;20064;-71
2021/07/29 07:28:08;;;;;;;18.13;16.83;;;18.30;86.30;;;;;;5035685;29;20990;-70
2021/07/29 07:30:40;;;;;;;18.80;17.48;;;18.50;84.30;;;;;;5032306;29;20114;-70
2021/07/29 07:33:12;;;;;;;17.90;16.60;;;18.70;83.00;;;;;;5030285;29;20729;-70
2021/07/29 07:35:44;;;;;;;18.15;16.75;;;18.80;82.90;;;;;;5009927;29;20045;-70
2021/07/29 07:38:17;;;;;;;18.65;17.35;;;18.90;83.70;;;;;;5034785;29;20504;-70
2021/07/29 07:40:50;;;;;;;18.25;16.85;;;18.90;82.10;;;;;;5013982;29;20050;-70
2021/07/29 07:43:22;;;;;;;18.13;16.83;;;19.00;83.20;;;;;;5034445;29;20144;-71
2021/07/29 07:45:54;;;;;;;19.17;17.77;;;19.10;83.90;;;;;;5034028;29;20116;-71
2021/07/29 07:48:26;;;;;;;19.42;17.90;;;19.20;82.90;;;;;;5034784;29;20578;-71
2021/07/29 07:50:59;;;;;;;19.15;17.75;;;19.30;83.40;;;;;;5033139;29;20108;-70
2021/07/29 07:53:32;;;;;;;18.95;17.45;;;19.30;81.40;;;;;;5035097;29;20049;-71
2021/07/29 07:56:05;;;;;;;18.70;17.40;;;19.40;82.10;;;;;;5025978;29;20515;-71
2021/07/29 07:58:37;;;;;;;18.85;17.45;;;19.70;82.20;;;;;;5036608;29;20175;-70
2021/07/29 08:01:09;;;;;;;18.50;17.17;;;19.80;82.20;;;;;;5035343;29;20077;-71
2021/07/29 08:03:41;;;;;;;19.63;18.25;;;19.90;81.80;;;;;;5015738;29;20056;-71
2021/07/29 08:06:13;;;;;;;19.55;18.05;;;20.00;81.70;;;;;;5014060;29;20065;-71
2021/07/29 08:08:45;;;;;;;19.38;17.98;;;20.20;81.50;;;;;;5030889;29;20116;-72
2021/07/29 08:11:17;;;;;;;19.42;18.02;;;20.30;78.50;;;;;;5034557;29;20047;-71
2021/07/29 08:13:49;;;;;;;19.70;18.30;;;20.20;78.40;;;;;;5034090;29;20092;-71
2021/07/29 08:16:21;;;;;;;19.35;17.85;;;20.30;77.50;;;;;;5037935;29;20132;-71
2021/07/29 08:18:54;;;;;;;19.98;18.58;;;20.40;78.00;;;;;;5034649;29;20048;-71
2021/07/29 08:21:26;;;;;;;20.17;18.77;;;20.60;80.00;;;;;;5036363;29;20073;-72
2021/07/29 08:23:58;;;;;;;18.95;17.55;;;20.90;81.20;;;;;;5036184;29;20170;-71
2021/07/29 08:26:30;;;;;;;19.25;17.77;;;21.00;74.60;;;;;;5032760;29;20182;-71
2021/07/29 08:29:02;;;;;;;19.98;18.48;;;21.00;74.00;;;;;;5039124;29;20128;-72
2021/07/29 08:31:34;;;;;;;19.23;17.73;;;21.10;74.00;;;;;;5034533;29;20089;-71
2021/07/29 08:34:06;;;;;;;19.45;18.00;;;21.10;74.20;;;;;;5034463;29;20053;-71
2021/07/29 08:36:38;;;;;;;20.13;18.48;;;21.10;75.90;;;;;;5032432;29;20890;-71
2021/07/29 08:39:10;;;;;;;18.80;17.50;;;21.20;75.10;;;;;;5019095;29;20136;-71
2021/07/29 08:41:41;;;;;;;19.77;18.38;;;21.20;74.60;;;;;;5032251;29;20056;-71
2021/07/29 08:44:13;;;;;;;19.85;18.45;;;21.30;76.20;;;;;;5036261;29;20083;-72
2021/07/29 08:46:48;;;;;;;20.27;18.70;;;21.50;76.20;;;;;;5040046;29;20486;-71
2021/07/29 08:49:26;;;;;;;19.65;18.25;;;21.60;75.60;;;;;;5017640;29;20113;-71
2021/07/29 08:51:58;;;;;;;19.55;18.15;;;21.70;72.50;;;;;;5039570;29;20097;-72
2021/07/29 08:54:30;;;;;;;19.33;17.92;;;21.80;75.60;;;;;;5039829;29;20507;-71
2021/07/29 08:57:02;;;;;;;18.83;17.52;;;21.80;75.90;;;;;;5036727;29;20125;-72
2021/07/29 08:59:37;;;;;;;19.60;18.20;;;21.80;75.00;;;;;;5039369;29;20080;-71
2021/07/29 09:02:22;;;;;;;20.02;18.52;;;21.80;74.00;;;;;;5034190;29;20046;-70
2021/07/29 09:05:17;;;;;;;19.80;18.40;;;21.80;73.20;;;;;;5039910;29;20189;-71
2021/07/29 09:08:07;;;;;;;19.70;18.20;;;21.80;73.40;;;;;;5039666;29;20053;-71
2021/07/29 09:10:40;;;;;;;20.38;18.70;;;21.90;73.40;;;;;;5042050;29;20053;-71
2021/07/29 09:13:17;;;;;;;19.10;17.70;;;21.90;73.70;;;;;;5040192;29;20060;-71
2021/07/29 09:16:09;;;;;;;19.55;18.13;;;22.00;73.50;;;;;;5037256;29;20053;-71
2021/07/29 09:18:41;;;;;;;19.30;17.80;;;22.00;72.80;;;;;;5038777;29;20415;-71
2021/07/29 09:21:16;;;;;;;19.70;18.30;;;22.00;72.80;;;;;;5037658;29;20053;-70
2021/07/29 09:24:08;;;;;;;18.88;17.48;;;22.30;71.30;;;;;;5036472;29;20045;-72
2021/07/29 09:26:59;;;;;;;19.40;18.00;;;22.40;71.50;;;;;;5035227;29;20065;-72
2021/07/29 09:29:31;;;;;;;19.02;17.63;;;22.40;69.60;;;;;;5024274;29;20045;-72
2021/07/29 09:32:10;;;;;;;19.10;17.80;;;22.40;69.20;;;;;;5036865;29;20124;-72
2021/07/29 09:34:49;;;;;;;18.80;17.50;;;22.50;68.70;;;;;;5037688;29;20167;-72
2021/07/29 09:37:21;;;;;;;19.02;17.63;;;22.60;69.70;;;;;;5034336;29;20098;-72
2021/07/29 09:40:00;;;;;;;18.75;17.45;;;22.50;69.40;;;;;;5028761;29;20065;-71
2021/07/29 09:42:32;;;;;;;18.77;17.38;;;22.50;70.40;;;;;;5037882;29;20148;-71
2021/07/29 09:45:07;;;;;;;19.52;17.95;;;22.50;70.30;;;;;;5039662;29;20472;-71
2021/07/29 09:47:39;;;;;;;20.25;18.63;;;22.80;69.50;;;;;;5035973;29;20136;-71
2021/07/29 09:50:11;;;;;;;18.75;17.40;;;23.00;69.30;;;;;;5036423;29;20133;-72
2021/07/29 09:52:43;;;;;;;19.17;17.83;;;23.10;69.20;;;;;;5035956;29;20045;-71
2021/07/29 09:55:15;;;;;;;18.85;17.55;;;23.00;67.10;;;;;;5034712;29;20082;-71
2021/07/29 09:57:47;;;;;;;19.80;18.30;;;22.90;69.10;;;;;;5034706;29;20461;-72
2021/07/29 10:00:19;;;;;;;19.10;17.70;;;22.90;67.50;;;;;;5036778;29;20113;-72
2021/07/29 10:02:53;;;;;;;19.92;18.52;;;23.20;66.10;;;;;;5034564;29;20041;-71
2021/07/29 10:05:45;;;;;;;19.23;17.83;;;23.40;67.30;;;;;;5037018;29;20113;-71
2021/07/29 10:09:03;;;;;;;19.95;18.45;;;23.70;65.60;;;;;;5035400;29;20105;-71
2021/07/29 10:11:38;;;;;;;19.58;18.17;;;23.90;63.10;;;;;;5021882;29;20136;-71
2021/07/29 10:14:10;;;;;;;19.55;17.98;;;23.90;66.40;;;;;;5039947;29;20121;-71
2021/07/29 10:16:50;;;;;;;19.98;18.58;;;23.80;65.00;;;;;;5033063;29;20135;-71
2021/07/29 10:19:22;;;;;;;19.42;18.13;;;23.90;66.10;;;;;;5038641;29;20041;-71
2021/07/29 10:22:14;;;;;;;18.98;17.65;;;24.00;65.10;;;;;;5017106;29;20041;-71
2021/07/29 10:24:53;;;;;;;19.95;18.55;;;24.00;64.80;;;;;;5037784;29;20120;-72
2021/07/29 10:27:25;;;;;;;20.83;19.25;;;24.20;64.90;;;;;;5033281;29;20140;-71
2021/07/29 10:30:20;;;;;;;19.05;17.73;;;24.00;65.00;;;;;;5032850;29;20215;-72
2021/07/29 10:32:53;;;;;;;19.70;18.38;;;24.00;65.10;;;;;;5031989;29;20481;-72
2021/07/29 10:35:31;;;;;;;18.80;17.52;;;23.90;65.40;;;;;;5036058;29;20049;-72
2021/07/29 10:38:03;;;;;;;19.00;17.70;;;23.90;66.60;;;;;;5033350;29;20073;-72
2021/07/29 10:40:39;;;;;;;20.05;18.45;;;23.90;65.60;;;;;;5033044;29;20120;-72
2021/07/29 10:43:23;;;;;;;20.05;18.65;;;23.80;66.50;;;;;;5032707;29;20076;-72
2021/07/29 10:45:56;;;;;;;19.48;18.08;;;24.10;68.50;;;;;;5039183;29;20053;-71
2021/07/29 10:48:44;;;;;;;19.65;18.25;;;24.10;65.80;;;;;;5035409;29;20056;-72
2021/07/29 10:51:17;;;;;;;19.77;18.38;;;24.00;64.50;;;;;;5038961;29;20049;-72
2021/07/29 10:53:51;;;;;;;20.17;18.75;;;24.00;64.50;;;;;;5037194;29;20135;-71
2021/07/29 10:56:25;;;;;;;19.63;18.23;;;23.90;66.60;;;;;;5041540;29;20045;-72
2021/07/29 10:58:57;;;;;;;19.42;18.02;;;23.90;65.30;;;;;;5038248;29;20056;-71
2021/07/29 11:01:47;;;;;;;19.35;17.92;;;23.90;66.70;;;;;;5040147;29;20643;-72
2021/07/29 11:04:27;;;;;;;19.55;18.15;;;23.90;65.90;;;;;;5019940;29;20043;-71
2021/07/29 11:07:05;;;;;;;19.40;18.00;;;23.80;66.80;;;;;;5036632;29;20052;-72
2021/07/29 11:09:37;;;;;;;19.15;17.85;;;24.00;66.90;;;;;;5050752;29;20590;-72
2021/07/29 11:12:13;;;;;;;19.27;17.92;;;24.20;66.30;;;;;;5036546;29;20425;-71
2021/07/29 11:14:45;;;;;;;19.23;17.83;;;24.30;65.60;;;;;;5036907;29;20121;-72
2021/07/29 11:17:21;;;;;;;18.35;16.95;;;24.40;65.20;;;;;;5034447;29;20045;-72
2021/07/29 11:19:53;;;;;;;19.50;18.10;;;24.30;63.90;;;;;;5036544;29;20044;-72
2021/07/29 11:22:25;;;;;;;19.00;17.55;;;24.20;63.80;;;;;;5036537;29;20158;-72
2021/07/29 11:25:07;;;;;;;18.83;17.42;;;24.20;63.50;;;;;;5039581;29;20033;-71
2021/07/29 11:27:38;;;;;;;18.92;17.52;;;24.40;65.00;;;;;;5034857;29;20893;-72
2021/07/29 11:30:12;;;;;;;19.55;18.05;;;24.50;64.00;;;;;;5036636;29;20053;-71
2021/07/29 11:32:45;;;;;;;20.00;18.50;;;24.60;63.70;;;;;;5040863;29;20054;-71
2021/07/29 11:35:20;;;;;;;19.25;17.85;;;24.80;63.80;;;;;;5034449;29;20427;-72
2021/07/29 11:37:52;;;;;;;19.55;18.23;;;24.90;60.80;;;;;;5032987;29;20044;-72
2021/07/29 11:40:25;;;;;;;19.80;18.40;;;25.00;62.80;;;;;;5035802;29;20149;-72
2021/07/29 11:42:57;;;;;;;19.15;17.75;;;25.20;62.30;;;;;;5035872;29;20050;-71
2021/07/29 11:45:32;;;;;;;19.33;17.83;;;25.20;62.90;;;;;;5037074;29;20052;-72
2021/07/29 11:48:17;;;;;;;19.23;17.92;;;25.10;61.90;;;;;;5036734;29;20079;-71
2021/07/29 11:50:51;;;;;;;18.70;17.40;;;24.90;62.70;;;;;;5035853;29;20056;-72
2021/07/29 11:53:38;;;;;;;18.90;17.60;;;25.00;60.00;;;;;;5034328;29;20129;-72
2021/07/29 11:56:12;;;;;;;18.40;17.10;;;25.00;61.10;;;;;;5023431;29;20049;-71
2021/07/29 11:58:57;;;;;;;18.50;17.10;;;25.20;61.40;;;;;;5034767;29;20057;-72
2021/07/29 12:01:29;;;;;;;18.45;17.15;;;25.40;61.40;;;;;;5033578;29;20148;-72
2021/07/29 12:04:02;;;;;;;18.88;17.58;;;25.50;59.60;;;;;;5037848;29;20615;-72
2021/07/29 12:06:37;;;;;;;18.98;17.58;;;25.70;59.90;;;;;;5030726;29;20144;-71
2021/07/29 12:09:09;;;;;;;19.40;18.00;;;25.90;60.30;;;;;;5034550;29;20072;-72
2021/07/29 12:11:41;;;;;;;18.65;17.35;;;26.00;60.70;;;;;;5029895;29;20098;-73
2021/07/29 12:14:14;;;;;;;19.75;18.35;;;26.10;59.70;;;;;;5038534;29;20045;-73
2021/07/29 12:16:51;;;;;;;19.67;18.27;;;26.30;60.40;;;;;;5033618;29;20049;-72
2021/07/29 12:19:23;;;;;;;19.27;17.88;;;26.30;59.10;;;;;;5037387;29;20060;-72
2021/07/29 12:21:56;;;;;;;19.58;18.25;;;26.40;59.50;;;;;;5036070;29;20046;-71
2021/07/29 12:24:44;;;;;;;19.92;18.52;;;26.50;59.50;;;;;;5034688;29;20690;-72
2021/07/29 12:27:19;;;;;;;19.88;18.35;;;26.60;61.30;;;;;;5029449;29;20081;-73
2021/07/29 12:29:53;;;;;;;19.85;18.48;;;26.70;59.40;;;;;;5035135;29;20053;-70
2021/07/29 12:32:29;;;;;;;19.88;18.50;;;26.60;59.90;;;;;;5034017;29;20085;-70
2021/07/29 12:35:02;;;;;;;20.27;18.88;;;26.70;60.70;;;;;;5034863;29;21225;-70
2021/07/29 12:37:36;;;;;;;20.17;18.77;;;26.70;57.70;;;;;;5035983;29;20101;-70
2021/07/29 12:40:31;;;;;;;20.15;18.75;;;26.70;58.90;;;;;;5032370;29;20052;-71
2021/07/29 12:43:23;;;;;;;19.45;18.15;;;26.70;59.20;;;;;;5032733;29;20484;-72
2021/07/29 12:45:57;;;;;;;20.38;18.88;;;26.50;59.30;;;;;;5035824;29;20046;-71
2021/07/29 12:48:30;;;;;;;20.45;18.95;;;26.60;58.70;;;;;;5029464;29;20143;-71
2021/07/29 12:51:02;;;;;;;19.77;18.38;;;26.50;60.10;;;;;;5036374;29;20044;-72
2021/07/29 12:53:34;;;;;;;19.52;18.13;;;26.60;57.90;;;;;;5035446;29;20069;-72
2021/07/29 12:56:14;;;;;;;19.70;18.30;;;26.50;58.50;;;;;;5035338;29;20081;-71
2021/07/29 12:58:48;;;;;;;20.70;19.20;;;26.50;59.00;;;;;;5034067;29;20045;-71
2021/07/29 13:01:19;;;;;;;21.02;19.42;;;26.60;60.20;;;;;;5034624;29;20053;-71